createdAt,value
2019-02-20T00:01:06.378Z,85.64
2019-02-20T00:03:34.887Z,85.46
2019-02-20T00:06:04.680Z,85.71
2019-02-20T00:08:33.307Z,86.15
2019-02-20T00:11:01.929Z,85.76
2019-02-20T00:13:30.447Z,85.74
2019-02-20T00:15:58.933Z,85.59
2019-02-20T00:18:27.558Z,86.38
2019-02-20T00:20:56.239Z,85.91
2019-02-20T00:23:24.785Z,86.46
2019-02-20T00:25:53.429Z,86.55
2019-02-20T00:28:22.066Z,86.65
2019-02-20T00:30:50.731Z,87.19
2019-02-20T00:33:19.341Z,86.70
2019-02-20T00:35:48.116Z,86.16
2019-02-20T00:38:16.677Z,86.37
2019-02-20T00:40:45.311Z,86.88
2019-02-20T00:43:14.138Z,86.55
2019-02-20T00:45:44.398Z,85.79
2019-02-20T00:48:26.634Z,85.86
2019-02-20T00:50:59.765Z,86.38
2019-02-20T00:53:33.031Z,86.65
2019-02-20T00:56:01.641Z,87.15
2019-02-20T00:58:30.121Z,87.07
2019-02-20T01:00:58.656Z,86.84
2019-02-20T01:03:27.264Z,87.16
2019-02-20T01:05:55.832Z,87.15
2019-02-20T01:08:24.777Z,87.70
2019-02-20T01:10:53.428Z,87.87
2019-02-20T01:13:21.908Z,87.52
2019-02-20T01:15:50.438Z,87.74
2019-02-20T01:18:19.068Z,87.88
2019-02-20T01:20:47.779Z,88.15
2019-02-20T01:23:16.484Z,88.34
2019-02-20T01:25:44.977Z,88.25
2019-02-20T01:28:13.607Z,88.48
2019-02-20T01:30:42.548Z,88.23
2019-02-20T01:33:11.036Z,88.13
2019-02-20T01:35:39.530Z,88.42
2019-02-20T01:38:09.195Z,88.68
2019-02-20T01:40:37.825Z,89.00
2019-02-20T01:43:06.433Z,89.75
2019-02-20T01:45:35.096Z,90.68
2019-02-20T01:48:03.658Z,90.48
2019-02-20T01:50:32.142Z,90.55
2019-02-20T01:53:10.087Z,91.27
2019-02-20T01:55:31.170Z,91.51
2019-02-20T01:57:59.729Z,91.99
2019-02-20T02:00:28.529Z,92.25
2019-02-20T02:02:57.170Z,92.11
2019-02-20T02:05:25.801Z,93.00
2019-02-20T02:07:54.414Z,92.93
2019-02-20T02:10:23.048Z,93.84
2019-02-20T02:12:51.674Z,94.34
2019-02-20T02:15:20.850Z,93.91
2019-02-20T02:17:52.284Z,93.77
2019-02-20T02:20:20.766Z,93.61
2019-02-20T02:22:49.416Z,94.14
2019-02-20T02:25:18.002Z,93.65
2019-02-20T02:27:46.625Z,93.82
2019-02-20T02:30:15.341Z,93.79
2019-02-20T02:32:44.017Z,92.53
2019-02-20T02:35:12.580Z,91.90
2019-02-20T02:37:41.225Z,91.35
2019-02-20T02:40:09.869Z,90.95
2019-02-20T02:42:38.388Z,90.92
2019-02-20T02:45:07.352Z,91.17
2019-02-20T02:47:36.011Z,91.91
2019-02-20T02:50:06.042Z,92.27
2019-02-20T02:52:34.526Z,92.12
2019-02-20T02:55:03.117Z,92.84
2019-02-20T02:57:31.746Z,93.34
2019-02-20T03:00:00.436Z,93.83
2019-02-20T03:02:28.958Z,94.03
2019-02-20T03:04:57.592Z,94.36
2019-02-20T03:07:26.169Z,94.60
2019-02-20T03:09:54.886Z,95.09
2019-02-20T03:12:23.516Z,95.32
2019-02-20T03:14:52.136Z,95.36
2019-02-20T03:17:20.721Z,94.62
2019-02-20T03:19:49.279Z,94.89
2019-02-20T03:22:17.925Z,94.95
2019-02-20T03:24:46.661Z,95.33
2019-02-20T03:27:15.163Z,95.53
2019-02-20T03:29:43.719Z,96.01
2019-02-20T03:32:12.440Z,95.92
2019-02-20T03:34:41.065Z,96.68
2019-02-20T03:37:09.583Z,96.44
2019-02-20T03:39:54.197Z,96.44
2019-02-20T03:42:22.873Z,96.28
2019-02-20T03:44:51.365Z,96.29
2019-02-20T03:47:20.331Z,95.14
2019-02-20T03:49:49.042Z,96.02
2019-02-20T03:52:17.603Z,96.50
2019-02-20T03:54:46.162Z,97.05
2019-02-20T03:57:15.050Z,98.69
2019-02-20T03:59:43.691Z,98.77
2019-02-20T04:02:12.292Z,98.65
2019-02-20T04:04:40.810Z,99.71
2019-02-20T04:07:09.442Z,100.00
2019-02-20T04:09:38.074Z,100.00
2019-02-20T04:12:12.066Z,99.79
2019-02-20T04:14:40.686Z,99.73
2019-02-20T04:17:09.322Z,100.00
2019-02-20T04:19:37.962Z,99.87
2019-02-20T04:22:06.450Z,100.00
2019-02-20T04:24:35.000Z,100.00
2019-02-20T04:27:03.643Z,98.99
2019-02-20T04:29:32.359Z,97.76
2019-02-20T04:32:00.893Z,94.59
2019-02-20T04:34:29.445Z,95.30
2019-02-20T04:36:58.076Z,98.04
2019-02-20T04:39:26.736Z,99.45
2019-02-20T04:41:55.298Z,99.93
2019-02-20T04:44:23.786Z,99.77
2019-02-20T04:46:52.406Z,99.72
2019-02-20T04:49:21.053Z,100.00
2019-02-20T04:51:49.694Z,100.00
2019-02-20T04:54:18.369Z,100.00
2019-02-20T04:56:47.060Z,100.00
2019-02-20T04:59:15.694Z,100.00
2019-02-20T05:01:44.460Z,100.00
2019-02-20T05:04:13.084Z,100.00
2019-02-20T05:06:41.638Z,100.00
2019-02-20T05:09:10.313Z,100.00
2019-02-20T05:11:38.937Z,100.00
2019-02-20T05:14:07.580Z,100.00
2019-02-20T05:16:36.373Z,100.00
2019-02-20T05:19:04.926Z,100.00
2019-02-20T05:21:33.577Z,100.00
2019-02-20T05:24:02.230Z,100.00
2019-02-20T05:26:30.722Z,100.00
2019-02-20T05:29:02.003Z,100.00
2019-02-20T05:31:30.657Z,100.00
2019-02-20T05:33:59.291Z,100.00
2019-02-20T05:36:27.862Z,100.00
2019-02-20T05:38:56.592Z,100.00
2019-02-20T05:41:25.208Z,99.25
2019-02-20T05:43:53.707Z,98.29
2019-02-20T05:46:22.392Z,96.60
2019-02-20T05:48:51.010Z,91.06
2019-02-20T05:51:19.571Z,88.12
2019-02-20T05:53:48.266Z,84.74
2019-02-20T05:56:16.922Z,82.85
2019-02-20T05:58:45.559Z,81.24
2019-02-20T06:01:14.087Z,80.40
2019-02-20T06:03:42.593Z,80.22
2019-02-20T06:06:11.210Z,78.19
2019-02-20T06:08:39.878Z,75.19
2019-02-20T06:11:14.628Z,72.95
2019-02-20T06:13:38.729Z,70.35
2019-02-20T06:16:07.413Z,68.92
2019-02-20T06:18:36.046Z,67.78
2019-02-20T06:21:04.637Z,65.47
2019-02-20T06:23:33.289Z,64.99
2019-02-20T06:26:01.776Z,63.75
2019-02-20T06:28:30.272Z,62.27
2019-02-20T06:30:58.987Z,62.42
2019-02-20T06:33:27.631Z,62.95
2019-02-20T06:35:56.202Z,62.86
2019-02-20T06:38:24.928Z,61.56
2019-02-20T06:40:53.553Z,60.18
2019-02-20T06:43:22.174Z,59.84
2019-02-20T06:45:53.439Z,60.33
2019-02-20T06:48:21.926Z,57.99
2019-02-20T06:50:50.619Z,57.60
2019-02-20T06:53:19.400Z,56.49
2019-02-20T06:55:47.908Z,56.11
2019-02-20T06:58:16.448Z,54.55
2019-02-20T07:00:45.508Z,54.63
2019-02-20T07:03:14.140Z,53.71
2019-02-20T07:05:42.720Z,53.65
2019-02-20T07:08:14.302Z,54.85
2019-02-20T07:11:11.305Z,54.15
2019-02-20T07:13:54.794Z,52.88
2019-02-20T07:16:57.929Z,53.42
2019-02-20T07:19:41.572Z,54.17
2019-02-20T07:22:29.766Z,53.37
2019-02-20T07:25:03.345Z,56.26
2019-02-20T07:27:59.787Z,53.50
2019-02-20T07:30:28.391Z,53.08
2019-02-20T07:32:57.027Z,54.29
2019-02-20T07:35:25.671Z,53.57
2019-02-20T07:37:54.218Z,55.46
2019-02-20T07:40:22.803Z,53.82
2019-02-20T07:42:51.440Z,53.77
2019-02-20T07:45:19.962Z,55.37
2019-02-20T07:47:48.608Z,53.10
2019-02-20T07:50:17.440Z,53.37
2019-02-20T07:52:46.118Z,53.43
2019-02-20T07:55:14.757Z,53.67
2019-02-20T07:57:43.455Z,53.55
2019-02-20T08:00:14.465Z,51.65
2019-02-20T08:02:43.032Z,51.31
2019-02-20T08:05:11.782Z,51.91
2019-02-20T08:07:40.679Z,52.22
2019-02-20T08:10:11.200Z,54.88
2019-02-20T08:12:39.698Z,53.29
2019-02-20T08:15:10.557Z,52.08
2019-02-20T08:17:39.178Z,51.67
2019-02-20T08:20:09.805Z,52.11
2019-02-20T08:22:38.422Z,52.52
2019-02-20T08:25:07.753Z,52.10
2019-02-20T08:27:36.452Z,51.89
2019-02-20T08:30:08.429Z,51.92
2019-02-20T08:32:37.100Z,52.27
2019-02-20T08:35:07.628Z,51.74
2019-02-20T08:37:36.295Z,52.44
2019-02-20T08:40:07.569Z,51.71
2019-02-20T08:42:36.222Z,51.59
2019-02-20T08:45:05.953Z,53.49
2019-02-20T08:47:34.507Z,52.95
2019-02-20T08:50:02.992Z,52.56
2019-02-20T08:52:31.667Z,51.77
2019-02-20T08:55:00.352Z,54.38
2019-02-20T08:57:28.880Z,54.43
2019-02-20T08:59:57.387Z,54.52
2019-02-20T09:02:26.098Z,54.73
2019-02-20T09:04:54.896Z,55.46
2019-02-20T09:07:23.569Z,55.23
2019-02-20T09:09:52.247Z,55.64
2019-02-20T09:12:20.741Z,56.70
2019-02-20T09:14:49.242Z,55.93
2019-02-20T09:17:17.881Z,55.43
2019-02-20T09:19:46.526Z,55.84
2019-02-20T09:22:15.110Z,56.09
2019-02-20T09:24:43.598Z,56.36
2019-02-20T09:27:12.225Z,56.38
2019-02-20T09:29:40.906Z,55.50
2019-02-20T09:32:09.470Z,55.00
2019-02-20T09:34:38.035Z,54.92
2019-02-20T09:37:06.706Z,54.19
2019-02-20T09:39:36.849Z,53.65
2019-02-20T09:42:07.003Z,53.22
2019-02-20T09:44:38.731Z,50.51
2019-02-20T09:47:07.352Z,51.36
2019-02-20T09:49:35.983Z,50.67
2019-02-20T09:52:04.543Z,50.29
2019-02-20T09:54:33.025Z,48.54
2019-02-20T09:57:01.772Z,45.15
2019-02-20T09:59:30.382Z,44.14
2019-02-20T10:01:58.924Z,43.99
2019-02-20T10:04:27.527Z,41.88
2019-02-20T10:06:56.161Z,40.22
2019-02-20T10:09:24.799Z,39.74
2019-02-20T10:11:53.453Z,38.82
2019-02-20T10:14:22.031Z,38.77
2019-02-20T10:16:50.662Z,39.03
2019-02-20T10:19:19.506Z,39.13
2019-02-20T10:21:48.015Z,39.67
2019-02-20T10:24:16.661Z,38.92
2019-02-20T10:26:45.253Z,38.18
2019-02-20T10:29:13.756Z,38.21
2019-02-20T10:31:42.384Z,38.49
2019-02-20T10:34:11.319Z,38.36
2019-02-20T10:36:39.837Z,38.17
2019-02-20T10:39:08.321Z,38.15
2019-02-20T10:41:36.990Z,38.36
2019-02-20T10:44:05.632Z,38.14
2019-02-20T10:46:40.186Z,37.49
2019-02-20T10:49:08.847Z,37.57
2019-02-20T10:51:37.482Z,36.83
2019-02-20T10:54:06.111Z,36.87
2019-02-20T10:56:34.699Z,37.01
2019-02-20T10:59:03.327Z,37.74
2019-02-20T11:01:31.963Z,37.95
2019-02-20T11:04:00.646Z,37.56
2019-02-20T11:06:29.309Z,37.62
2019-02-20T11:08:57.948Z,37.89
2019-02-20T11:11:26.474Z,37.73
2019-02-20T11:13:55.034Z,37.66
2019-02-20T11:16:23.668Z,37.69
2019-02-20T11:18:52.325Z,37.80
2019-02-20T11:21:20.890Z,36.94
2019-02-20T11:23:49.455Z,36.56
2019-02-20T11:26:18.781Z,35.35
2019-02-20T11:28:47.516Z,35.70
2019-02-20T11:31:16.014Z,34.72
2019-02-20T11:33:44.610Z,35.11
2019-02-20T11:36:13.240Z,34.50
2019-02-20T11:38:41.892Z,33.45
2019-02-20T11:41:10.563Z,34.15
2019-02-20T11:43:39.194Z,32.18
2019-02-20T11:46:07.780Z,33.10
2019-02-20T11:48:36.267Z,32.85
2019-02-20T11:51:04.887Z,31.60
2019-02-20T11:53:37.186Z,30.84
2019-02-20T11:56:03.847Z,31.75
2019-02-20T11:58:32.334Z,32.26
2019-02-20T12:01:01.034Z,32.99
2019-02-20T12:03:29.819Z,33.00
2019-02-20T12:05:58.309Z,32.16
2019-02-20T12:08:26.789Z,32.23
2019-02-20T12:10:55.458Z,32.71
2019-02-20T12:13:24.092Z,32.63
2019-02-20T12:15:52.653Z,33.19
2019-02-20T12:18:21.183Z,33.00
2019-02-20T12:20:49.807Z,33.68
2019-02-20T12:23:18.363Z,33.27
2019-02-20T12:25:47.276Z,32.98
2019-02-20T12:28:15.925Z,32.97
2019-02-20T12:30:44.474Z,33.36
2019-02-20T12:33:13.632Z,33.49
2019-02-20T12:35:42.365Z,32.95
2019-02-20T12:38:11.168Z,33.46
2019-02-20T12:40:39.764Z,34.12
2019-02-20T12:43:08.324Z,34.21
2019-02-20T12:45:36.953Z,33.52
2019-02-20T12:48:05.577Z,33.91
2019-02-20T12:50:34.157Z,34.05
2019-02-20T12:53:02.677Z,33.83
2019-02-20T12:55:31.300Z,32.76
2019-02-20T12:58:00.022Z,32.30
2019-02-20T13:00:28.789Z,32.04
2019-02-20T13:02:57.509Z,32.13
2019-02-20T13:05:26.078Z,32.75
2019-02-20T13:07:54.671Z,33.10
2019-02-20T13:10:23.303Z,33.38
2019-02-20T13:12:51.933Z,33.68
2019-02-20T13:15:20.675Z,33.47
2019-02-20T13:17:49.224Z,33.18
2019-02-20T13:20:17.861Z,32.44
2019-02-20T13:22:46.721Z,32.18
2019-02-20T13:25:15.347Z,32.62
2019-02-20T13:27:43.952Z,32.73
2019-02-20T13:30:14.318Z,32.59
2019-02-20T13:32:43.536Z,32.74
2019-02-20T13:35:12.259Z,32.70
2019-02-20T13:37:40.784Z,32.54
2019-02-20T13:40:11.011Z,32.61
2019-02-20T13:42:39.502Z,32.95
2019-02-20T13:45:09.180Z,32.99
2019-02-20T13:47:37.821Z,32.91
2019-02-20T13:50:08.857Z,33.00
2019-02-20T13:52:37.521Z,32.93
2019-02-20T13:55:06.461Z,33.18
2019-02-20T13:57:35.166Z,33.44
2019-02-20T14:00:04.028Z,33.62
2019-02-20T14:02:32.606Z,33.44
2019-02-20T14:05:01.303Z,33.90
2019-02-20T14:07:30.213Z,34.24
2019-02-20T14:09:58.985Z,34.56
2019-02-20T14:12:27.542Z,34.83
2019-02-20T14:14:56.218Z,35.22
2019-02-20T14:17:26.888Z,35.97
2019-02-20T14:19:55.149Z,36.52
2019-02-20T14:22:24.081Z,37.00
2019-02-20T14:24:52.594Z,37.16
2019-02-20T14:27:21.248Z,37.41
2019-02-20T14:29:49.924Z,37.78
2019-02-20T14:32:18.589Z,38.47
2019-02-20T14:34:47.082Z,38.45
2019-02-20T14:37:15.605Z,38.81
2019-02-20T14:39:44.243Z,39.33
2019-02-20T14:42:13.257Z,39.78
2019-02-20T14:44:41.800Z,40.39
2019-02-20T14:47:10.488Z,40.91
2019-02-20T14:49:39.126Z,41.51
2019-02-20T14:52:07.972Z,41.69
2019-02-20T14:54:36.460Z,41.96
2019-02-20T14:57:05.100Z,41.94
2019-02-20T14:59:34.182Z,42.40
2019-02-20T15:02:02.809Z,42.63
2019-02-20T15:04:31.299Z,42.77
2019-02-20T15:06:59.897Z,43.19
2019-02-20T15:09:28.521Z,43.73
2019-02-20T15:11:57.162Z,43.99
2019-02-20T15:14:26.374Z,44.43
2019-02-20T15:16:54.934Z,44.71
2019-02-20T15:19:23.559Z,45.14
2019-02-20T15:21:52.234Z,45.43
2019-02-20T15:24:20.819Z,45.69
2019-02-20T15:26:49.391Z,46.00
2019-02-20T15:29:18.086Z,46.20
2019-02-20T15:31:46.925Z,46.60
2019-02-20T15:34:15.513Z,46.99
2019-02-20T15:36:44.047Z,47.25
2019-02-20T15:39:12.698Z,47.51
2019-02-20T15:41:41.299Z,47.40
2019-02-20T15:44:09.984Z,47.79
2019-02-20T15:46:38.612Z,48.12
2019-02-20T15:49:07.455Z,48.40
2019-02-20T15:51:36.371Z,48.42
2019-02-20T15:54:05.036Z,48.79
2019-02-20T15:56:33.684Z,48.96
2019-02-20T15:59:02.308Z,49.29
2019-02-20T16:01:30.884Z,49.24
2019-02-20T16:03:59.538Z,49.48
2019-02-20T16:06:28.187Z,49.80
2019-02-20T16:08:56.687Z,49.84
2019-02-20T16:11:25.251Z,50.08
2019-02-20T16:13:54.190Z,50.13
2019-02-20T16:16:22.817Z,50.59
2019-02-20T16:18:51.472Z,50.93
2019-02-20T16:21:20.430Z,51.00
2019-02-20T16:23:48.930Z,51.31
2019-02-20T16:26:17.493Z,51.55
2019-02-20T16:28:46.176Z,51.69
2019-02-20T16:31:14.813Z,52.09
2019-02-20T16:33:43.467Z,51.94
2019-02-20T16:36:12.051Z,52.03
2019-02-20T16:38:40.948Z,52.36
2019-02-20T16:41:09.579Z,52.50
2019-02-20T16:43:38.190Z,53.10
2019-02-20T16:46:06.824Z,53.13
2019-02-20T16:48:35.440Z,53.41
2019-02-20T16:51:04.114Z,53.68
2019-02-20T16:53:32.675Z,54.34
2019-02-20T16:56:01.413Z,54.04
2019-02-20T16:58:30.324Z,54.59
2019-02-20T17:00:59.031Z,54.65
2019-02-20T17:03:27.668Z,54.57
2019-02-20T17:05:56.347Z,54.80
2019-02-20T17:08:24.897Z,54.96
2019-02-20T17:10:53.993Z,55.14
2019-02-20T17:13:22.838Z,55.47
2019-02-20T17:15:51.786Z,55.52
2019-02-20T17:18:20.337Z,55.71
2019-02-20T17:20:49.101Z,55.76
2019-02-20T17:23:17.741Z,55.95
2019-02-20T17:25:46.381Z,56.33
2019-02-20T17:28:15.659Z,56.05
2019-02-20T17:30:44.282Z,56.28
2019-02-20T17:33:12.910Z,56.77
2019-02-20T17:35:41.579Z,56.99
2019-02-20T17:38:10.210Z,57.20
2019-02-20T17:40:38.846Z,57.19
2019-02-20T17:43:07.961Z,57.55
2019-02-20T17:45:36.454Z,57.73
2019-02-20T17:48:05.106Z,58.11
2019-02-20T17:50:33.766Z,58.36
2019-02-20T17:53:02.398Z,58.38
2019-02-20T17:55:31.045Z,58.59
2019-02-20T17:57:59.882Z,58.98
2019-02-20T18:00:32.407Z,59.25
2019-02-20T18:03:01.045Z,59.31
2019-02-20T18:05:29.639Z,59.53
2019-02-20T18:07:58.257Z,59.64
2019-02-20T18:10:26.877Z,59.55
2019-02-20T18:12:55.494Z,59.72
2019-02-20T18:15:24.052Z,59.93
2019-02-20T18:17:52.686Z,59.96
2019-02-20T18:20:21.291Z,60.11
2019-02-20T18:22:49.942Z,60.35
2019-02-20T18:25:18.575Z,60.71
2019-02-20T18:27:47.178Z,60.84
2019-02-20T18:30:16.609Z,60.69
2019-02-20T18:32:45.326Z,60.74
2019-02-20T18:35:18.737Z,60.81
2019-02-20T18:37:47.392Z,61.01
2019-02-20T18:40:17.146Z,61.13
2019-02-20T18:42:45.991Z,61.38
2019-02-20T18:45:15.715Z,62.17
2019-02-20T18:47:44.468Z,61.95
2019-02-20T18:50:14.435Z,61.88
2019-02-20T18:52:43.055Z,62.08
2019-02-20T18:55:13.283Z,62.24
2019-02-20T18:57:42.075Z,62.31
2019-02-20T19:00:18.995Z,62.27
2019-02-20T19:02:47.670Z,62.64
2019-02-20T19:05:18.723Z,62.77
2019-02-20T19:07:46.751Z,62.41
2019-02-20T19:10:36.818Z,62.77
2019-02-20T19:13:38.191Z,63.08
2019-02-20T19:16:15.764Z,63.35
2019-02-20T19:19:02.366Z,63.23
2019-02-20T19:21:47.800Z,63.57
2019-02-20T19:24:22.361Z,63.73
2019-02-20T19:27:02.552Z,63.65
2019-02-20T19:29:34.078Z,63.67
2019-02-20T19:32:28.374Z,63.83
2019-02-20T19:35:16.346Z,63.73
2019-02-20T19:38:09.596Z,63.71
2019-02-20T19:41:13.163Z,63.54
2019-02-20T19:43:50.688Z,63.81
2019-02-20T19:46:50.970Z,63.99
2019-02-20T19:49:25.210Z,64.39
2019-02-20T19:52:19.616Z,64.65
2019-02-20T19:54:56.728Z,64.76
2019-02-20T19:57:36.902Z,64.47
2019-02-20T20:00:32.192Z,64.78
2019-02-20T20:03:29.608Z,65.08
2019-02-20T20:06:09.901Z,65.15
2019-02-20T20:08:41.464Z,65.44
2019-02-20T20:11:31.188Z,65.81
2019-02-20T20:14:34.964Z,65.75
2019-02-20T20:17:14.936Z,65.83
2019-02-20T20:20:01.482Z,66.05
2019-02-20T20:22:41.524Z,66.27
2019-02-20T20:25:19.046Z,66.45
2019-02-20T20:27:53.849Z,66.68
2019-02-20T20:30:42.147Z,66.57
2019-02-20T20:33:39.356Z,66.69
2019-02-20T20:36:16.884Z,66.76
2019-02-20T20:39:00.431Z,66.64
2019-02-20T20:41:37.661Z,66.95
2019-02-20T20:44:44.069Z,66.87
2019-02-20T20:47:47.314Z,66.96
2019-02-20T20:50:44.435Z,67.02
2019-02-20T20:53:24.782Z,66.90
2019-02-20T20:56:08.539Z,66.70
2019-02-20T20:58:40.088Z,66.56
2019-02-20T21:01:26.649Z,66.34
2019-02-20T21:04:20.432Z,66.39
2019-02-20T21:07:14.400Z,66.32
2019-02-20T21:09:55.197Z,66.14
2019-02-20T21:12:38.844Z,65.84
2019-02-20T21:15:19.646Z,65.31
2019-02-20T21:17:53.965Z,65.57
2019-02-20T21:20:44.033Z,65.18
2019-02-20T21:23:21.577Z,65.25
2019-02-20T21:26:05.656Z,65.34
2019-02-20T21:28:49.104Z,65.40
2019-02-20T21:31:37.410Z,65.39
2019-02-20T21:34:14.590Z,65.26
2019-02-20T21:36:46.167Z,65.11
2019-02-20T21:39:17.715Z,65.19
2019-02-20T21:41:58.612Z,64.65
2019-02-20T21:44:42.500Z,65.16
2019-02-20T21:47:40.110Z,64.89
2019-02-20T21:50:17.310Z,65.06
2019-02-20T21:52:54.920Z,65.18
2019-02-20T21:55:35.118Z,65.02
2019-02-20T21:58:18.755Z,65.02
2019-02-20T22:01:12.963Z,65.06
2019-02-20T22:04:02.721Z,65.14
2019-02-20T22:06:53.276Z,64.72
2019-02-20T22:09:42.985Z,64.32
2019-02-20T22:12:19.793Z,64.51
2019-02-20T22:15:12.052Z,64.17
2019-02-20T22:17:43.598Z,64.04
2019-02-20T22:20:18.011Z,64.13
2019-02-20T22:23:07.870Z,64.03
2019-02-20T22:25:57.099Z,63.84
2019-02-20T22:28:43.487Z,63.43
2019-02-20T22:31:39.377Z,63.37
2019-02-20T22:34:29.233Z,63.10
2019-02-20T22:37:03.977Z,63.41
2019-02-20T22:39:55.158Z,63.34
2019-02-20T22:42:26.792Z,63.32
2019-02-20T22:45:09.776Z,63.21
2019-02-20T22:47:57.687Z,63.12
2019-02-20T22:51:04.414Z,62.87
2019-02-20T22:53:41.704Z,62.91
2019-02-20T22:56:16.154Z,63.07
2019-02-20T22:58:50.363Z,63.13
2019-02-20T23:01:30.840Z,62.85
2019-02-20T23:04:02.417Z,62.91
2019-02-20T23:07:01.281Z,62.68
2019-02-20T23:09:44.954Z,62.64
2019-02-20T23:12:39.293Z,62.62
2019-02-20T23:15:07.889Z,62.43
2019-02-20T23:17:36.442Z,62.31
2019-02-20T23:20:07.668Z,62.28
2019-02-20T23:22:36.189Z,62.39
2019-02-20T23:25:06.016Z,62.30
2019-02-20T23:27:34.732Z,62.38
2019-02-20T23:30:12.555Z,62.32
2019-02-20T23:32:33.966Z,62.47
2019-02-20T23:35:02.701Z,62.56
2019-02-20T23:37:31.616Z,62.59
2019-02-20T23:40:00.307Z,62.51
2019-02-20T23:42:28.882Z,62.84
2019-02-20T23:44:57.544Z,62.95
2019-02-20T23:47:26.177Z,63.11
2019-02-20T23:49:56.547Z,63.23
2019-02-20T23:52:25.141Z,63.18
2019-02-20T23:54:53.776Z,63.19
2019-02-20T23:57:22.259Z,63.46
2019-02-20T23:59:50.808Z,63.36
